createdAt,value
2018-08-11T00:01:55.623Z,43.06
2018-08-11T00:04:25.469Z,43.69
2018-08-11T00:06:55.234Z,43.26
2018-08-11T00:09:24.697Z,43.85
2018-08-11T00:11:54.481Z,42.96
2018-08-11T00:14:24.184Z,43.99
2018-08-11T00:16:54.082Z,43.64
2018-08-11T00:19:23.620Z,43.37
2018-08-11T00:21:53.869Z,44.11
2018-08-11T00:24:23.538Z,43.69
2018-08-11T00:26:53.322Z,43.25
2018-08-11T00:29:22.840Z,43.79
2018-08-11T00:31:52.656Z,43.46
2018-08-11T00:34:22.137Z,44.00
2018-08-11T00:36:52.280Z,44.10
2018-08-11T00:39:22.095Z,43.52
2018-08-11T00:41:51.816Z,43.06
2018-08-11T00:44:21.304Z,43.20
2018-08-11T00:46:51.410Z,44.43
2018-08-11T00:49:21.651Z,43.77
2018-08-11T00:51:51.936Z,43.66
2018-08-11T00:54:21.403Z,43.76
2018-08-11T00:56:51.194Z,44.23
2018-08-11T00:59:21.112Z,43.34
2018-08-11T01:01:50.962Z,43.82
2018-08-11T01:04:20.540Z,43.99
2018-08-11T01:06:51.004Z,44.81
2018-08-11T01:09:20.638Z,44.30
2018-08-11T01:11:51.020Z,44.23
2018-08-11T01:14:20.813Z,44.53
2018-08-11T01:16:51.288Z,45.40
2018-08-11T01:19:21.493Z,45.25
2018-08-11T01:21:51.325Z,45.31
2018-08-11T01:24:20.871Z,45.49
2018-08-11T01:26:51.359Z,46.45
2018-08-11T01:29:20.923Z,52.10
2018-08-11T01:31:51.156Z,54.80
2018-08-11T01:34:20.767Z,55.82
2018-08-11T01:36:51.329Z,57.12
2018-08-11T01:39:21.284Z,58.38
2018-08-11T01:41:51.075Z,58.82
2018-08-11T01:44:21.238Z,57.34
2018-08-11T01:46:51.124Z,57.57
2018-08-11T01:49:20.676Z,57.03
2018-08-11T01:51:51.080Z,57.68
2018-08-11T01:54:20.674Z,58.28
2018-08-11T01:56:51.058Z,59.89
2018-08-11T01:59:20.967Z,59.74
2018-08-11T02:01:51.143Z,63.83
2018-08-11T02:04:20.913Z,64.67
2018-08-11T02:06:51.366Z,64.61
2018-08-11T02:09:21.180Z,65.04
2018-08-11T02:11:51.507Z,64.49
2018-08-11T02:14:20.994Z,65.50
2018-08-11T02:16:51.073Z,65.99
2018-08-11T02:19:20.793Z,66.53
2018-08-11T02:21:51.294Z,66.40
2018-08-11T02:24:21.022Z,65.51
2018-08-11T02:26:51.799Z,65.76
2018-08-11T02:29:21.282Z,65.04
2018-08-11T02:31:51.116Z,65.57
2018-08-11T02:34:20.879Z,66.59
2018-08-11T02:36:51.744Z,67.31
2018-08-11T02:39:21.961Z,66.35
2018-08-11T02:41:51.440Z,66.27
2018-08-11T02:44:21.114Z,66.08
2018-08-11T02:46:51.233Z,66.50
2018-08-11T02:49:21.135Z,66.03
2018-08-11T02:51:51.210Z,66.69
2018-08-11T02:54:21.106Z,66.50
2018-08-11T02:56:51.500Z,65.94
2018-08-11T02:59:24.886Z,66.22
2018-08-11T03:01:55.685Z,66.13
2018-08-11T03:04:25.720Z,66.17
2018-08-11T03:06:55.952Z,65.81
2018-08-11T03:09:25.591Z,66.60
2018-08-11T03:11:55.382Z,67.58
2018-08-11T03:14:25.185Z,68.36
2018-08-11T03:16:54.959Z,67.98
2018-08-11T03:19:24.434Z,68.85
2018-08-11T03:22:24.801Z,68.29
2018-08-11T03:24:54.782Z,69.18
2018-08-11T03:27:24.320Z,69.19
2018-08-11T03:29:54.463Z,69.83
2018-08-11T03:32:24.194Z,68.78
2018-08-11T03:34:53.652Z,68.75
2018-08-11T03:37:23.230Z,68.69
2018-08-11T03:39:53.167Z,68.57
2018-08-11T03:42:22.806Z,67.40
2018-08-11T03:44:52.561Z,67.37
2018-08-11T03:47:22.252Z,67.32
2018-08-11T03:49:52.014Z,67.94
2018-08-11T03:52:21.465Z,68.13
2018-08-11T03:54:51.575Z,66.94
2018-08-11T03:57:21.151Z,67.61
2018-08-11T03:59:51.590Z,66.88
2018-08-11T04:02:21.469Z,67.50
2018-08-11T04:04:51.516Z,67.54
2018-08-11T04:07:21.114Z,67.38
2018-08-11T04:09:51.551Z,67.66
2018-08-11T04:12:21.333Z,68.16
2018-08-11T04:14:51.676Z,67.82
2018-08-11T04:17:25.491Z,68.91
2018-08-11T04:19:55.349Z,68.56
2018-08-11T04:22:25.004Z,69.23
2018-08-11T04:24:55.048Z,68.76
2018-08-11T04:27:24.574Z,68.40
2018-08-11T04:29:54.605Z,70.02
2018-08-11T04:32:24.726Z,68.02
2018-08-11T04:34:54.850Z,67.80
2018-08-11T04:37:24.487Z,67.55
2018-08-11T04:39:54.306Z,68.82
2018-08-11T04:42:24.074Z,68.30
2018-08-11T04:44:53.680Z,67.97
2018-08-11T04:47:23.409Z,67.10
2018-08-11T04:49:53.296Z,67.32
2018-08-11T04:52:22.908Z,67.10
2018-08-11T04:54:52.837Z,67.70
2018-08-11T04:57:22.500Z,68.49
2018-08-11T04:59:52.130Z,67.88
2018-08-11T05:02:21.697Z,66.86
2018-08-11T05:04:51.792Z,68.25
2018-08-11T05:07:21.690Z,68.47
2018-08-11T05:09:51.808Z,68.63
2018-08-11T05:12:21.562Z,68.62
2018-08-11T05:14:52.224Z,67.83
2018-08-11T05:17:21.746Z,68.83
2018-08-11T05:19:52.032Z,69.13
2018-08-11T05:22:21.796Z,69.23
2018-08-11T05:24:52.033Z,68.46
2018-08-11T05:27:21.633Z,68.91
2018-08-11T05:29:54.083Z,68.82
2018-08-11T05:32:23.843Z,69.26
2018-08-11T05:34:54.340Z,69.25
2018-08-11T05:37:24.026Z,68.85
2018-08-11T05:39:53.812Z,67.72
2018-08-11T05:42:24.063Z,69.25
2018-08-11T05:44:53.834Z,69.38
2018-08-11T05:47:23.749Z,69.76
2018-08-11T05:49:56.441Z,69.30
2018-08-11T05:52:25.922Z,69.94
2018-08-11T05:54:55.466Z,69.64
2018-08-11T05:57:24.981Z,69.57
2018-08-11T05:59:54.639Z,69.68
2018-08-11T06:02:25.209Z,70.01
2018-08-11T06:04:55.171Z,69.72
2018-08-11T06:07:25.523Z,70.15
2018-08-11T06:09:55.551Z,69.69
2018-08-11T06:12:25.130Z,71.21
2018-08-11T06:14:54.850Z,69.93
2018-08-11T06:17:24.494Z,69.35
2018-08-11T06:19:54.566Z,69.51
2018-08-11T06:22:24.230Z,69.39
2018-08-11T06:24:54.020Z,69.59
2018-08-11T06:27:24.255Z,69.75
2018-08-11T06:32:47.638Z,68.30
2018-08-11T06:35:17.644Z,67.72
2018-08-11T06:37:47.233Z,67.26
2018-08-11T06:40:16.977Z,68.24
2018-08-11T06:42:46.449Z,68.16
2018-08-11T06:45:16.033Z,68.40
2018-08-11T06:47:45.946Z,67.51
2018-08-11T06:50:15.743Z,68.08
2018-08-11T06:52:45.350Z,68.13
2018-08-11T06:55:15.021Z,67.26
2018-08-11T06:57:45.543Z,68.85
2018-08-11T07:00:15.277Z,68.19
2018-08-11T07:02:45.308Z,68.36
2018-08-11T07:05:14.899Z,67.97
2018-08-11T07:07:44.755Z,67.41
2018-08-11T07:10:14.991Z,66.46
2018-08-11T07:12:44.576Z,65.23
2018-08-11T07:15:14.647Z,64.76
2018-08-11T07:17:44.568Z,64.63
2018-08-11T07:20:14.305Z,64.20
2018-08-11T07:22:44.422Z,64.46
2018-08-11T07:25:13.993Z,64.33
2018-08-11T07:27:43.511Z,64.45
2018-08-11T07:30:13.216Z,63.88
2018-08-11T07:32:42.952Z,64.13
2018-08-11T07:35:12.597Z,62.57
2018-08-11T07:37:42.632Z,62.07
2018-08-11T07:40:12.933Z,59.99
2018-08-11T07:42:43.284Z,60.06
2018-08-11T07:45:13.569Z,59.77
2018-08-11T07:47:43.652Z,59.86
2018-08-11T07:50:13.496Z,60.93
2018-08-11T07:52:43.498Z,59.49
2018-08-11T07:55:13.503Z,58.83
2018-08-11T07:57:43.149Z,58.27
2018-08-11T08:00:13.205Z,55.89
2018-08-11T08:02:42.965Z,55.25
2018-08-11T08:05:12.703Z,56.95
2018-08-11T08:07:42.302Z,55.97
2018-08-11T08:10:12.104Z,54.41
2018-08-11T08:12:42.160Z,52.74
2018-08-11T08:15:12.232Z,51.53
2018-08-11T08:17:42.057Z,51.20
2018-08-11T08:20:12.858Z,50.48
2018-08-11T08:22:42.513Z,49.67
2018-08-11T08:25:13.876Z,49.11
2018-08-11T08:27:50.993Z,49.40
2018-08-11T08:30:27.059Z,48.90
2018-08-11T08:32:56.606Z,48.59
2018-08-11T08:35:26.442Z,49.42
2018-08-11T08:37:56.435Z,49.06
2018-08-11T08:40:26.227Z,48.83
2018-08-11T08:42:57.305Z,47.39
2018-08-11T08:45:26.909Z,47.13
2018-08-11T08:47:57.183Z,46.26
2018-08-11T08:50:26.877Z,46.33
2018-08-11T08:52:56.930Z,46.16
2018-08-11T08:55:26.515Z,45.02
2018-08-11T08:57:56.763Z,44.77
2018-08-11T09:00:26.978Z,44.62
2018-08-11T09:02:56.553Z,46.08
2018-08-11T09:05:26.719Z,45.49
2018-08-11T09:07:56.252Z,43.91
2018-08-11T09:10:26.232Z,43.88
2018-08-11T09:12:56.310Z,43.23
2018-08-11T09:15:26.017Z,43.22
2018-08-11T09:17:55.852Z,43.67
2018-08-11T09:20:25.393Z,44.40
2018-08-11T09:22:54.977Z,45.50
2018-08-11T09:25:24.525Z,44.60
2018-08-11T09:27:54.595Z,45.09
2018-08-11T09:30:24.711Z,44.85
2018-08-11T09:32:54.879Z,46.06
2018-08-11T09:35:28.634Z,45.47
2018-08-11T09:37:58.860Z,45.75
2018-08-11T09:40:28.439Z,44.61
2018-08-11T09:42:58.929Z,43.85
2018-08-11T09:45:28.941Z,44.00
2018-08-11T09:48:01.078Z,43.52
2018-08-11T09:50:32.138Z,43.92
2018-08-11T09:53:03.414Z,45.03
2018-08-11T09:55:33.905Z,46.01
2018-08-11T09:58:04.193Z,44.73
2018-08-11T10:00:39.043Z,44.29
2018-08-11T10:03:08.698Z,43.20
2018-08-11T10:05:38.732Z,43.61
2018-08-11T10:08:11.386Z,42.09
2018-08-11T10:10:41.057Z,41.63
2018-08-11T10:13:10.801Z,42.66
2018-08-11T10:15:40.652Z,42.11
2018-08-11T10:18:10.428Z,41.04
2018-08-11T10:20:40.666Z,42.33
2018-08-11T10:23:10.448Z,41.11
2018-08-11T10:25:39.990Z,40.88
2018-08-11T10:28:09.702Z,40.07
2018-08-11T10:30:39.206Z,40.76
2018-08-11T10:33:08.704Z,40.37
2018-08-11T10:35:38.862Z,40.44
2018-08-11T10:38:08.913Z,40.52
2018-08-11T10:40:38.594Z,40.29
2018-08-11T10:43:08.802Z,40.96
2018-08-11T10:45:38.242Z,40.48
2018-08-11T10:48:08.200Z,40.84
2018-08-11T10:50:37.897Z,39.35
2018-08-11T10:53:07.718Z,40.54
2018-08-11T10:55:37.182Z,39.88
2018-08-11T10:58:07.262Z,38.61
2018-08-11T11:00:36.815Z,39.52
2018-08-11T11:03:07.650Z,39.35
2018-08-11T11:05:38.563Z,39.42
2018-08-11T11:08:08.736Z,40.65
2018-08-11T11:10:38.275Z,40.16
2018-08-11T11:13:09.178Z,40.09
2018-08-11T11:15:39.135Z,40.10
2018-08-11T11:18:09.359Z,39.80
2018-08-11T11:20:39.323Z,39.36
2018-08-11T11:23:09.067Z,38.49
2018-08-11T11:25:38.787Z,38.20
2018-08-11T11:28:08.532Z,40.06
2018-08-11T11:30:39.257Z,38.67
2018-08-11T11:33:09.038Z,38.69
2018-08-11T11:35:38.708Z,39.47
2018-08-11T11:38:08.839Z,39.45
2018-08-11T11:40:38.433Z,39.33
2018-08-11T11:43:08.101Z,39.01
2018-08-11T11:45:37.870Z,39.86
2018-08-11T11:48:07.920Z,38.91
2018-08-11T11:50:37.541Z,39.66
2018-08-11T11:53:07.668Z,38.74
2018-08-11T11:55:37.382Z,39.17
2018-08-11T11:58:07.480Z,39.43
2018-08-11T12:00:37.009Z,37.88
2018-08-11T12:03:07.010Z,37.94
2018-08-11T12:05:36.856Z,38.66
2018-08-11T12:08:06.725Z,38.41
2018-08-11T12:10:36.214Z,39.39
2018-08-11T12:13:07.140Z,38.67
2018-08-11T12:15:36.926Z,37.96
2018-08-11T12:18:06.989Z,38.79
2018-08-11T12:20:36.596Z,39.13
2018-08-11T12:23:06.398Z,38.39
2018-08-11T12:25:35.961Z,37.28
2018-08-11T12:28:05.803Z,37.03
2018-08-11T12:30:35.322Z,36.59
2018-08-11T12:33:04.980Z,36.56
2018-08-11T12:35:40.681Z,36.89
2018-08-11T12:38:10.518Z,35.11
2018-08-11T12:40:40.214Z,35.12
2018-08-11T12:43:10.024Z,35.88
2018-08-11T12:45:39.698Z,35.83
2018-08-11T12:48:09.473Z,36.08
2018-08-11T12:50:39.168Z,35.77
2018-08-11T12:53:09.363Z,35.16
2018-08-11T12:55:39.050Z,35.03
2018-08-11T12:58:09.278Z,36.33
2018-08-11T13:00:39.235Z,36.22
2018-08-11T13:03:09.050Z,35.88
2018-08-11T13:05:38.540Z,37.09
2018-08-11T13:08:08.137Z,36.66
2018-08-11T13:10:37.700Z,35.73
2018-08-11T13:13:07.434Z,35.66
2018-08-11T13:15:37.318Z,35.51
2018-08-11T13:18:07.379Z,36.57
2018-08-11T13:20:37.226Z,35.55
2018-08-11T13:23:07.002Z,35.19
2018-08-11T13:25:36.652Z,34.44
2018-08-11T13:28:07.157Z,34.94
2018-08-11T13:30:36.616Z,33.96
2018-08-11T13:33:06.818Z,34.28
2018-08-11T13:35:36.351Z,34.56
2018-08-11T13:38:06.743Z,34.53
2018-08-11T13:40:36.509Z,34.28
2018-08-11T13:43:06.416Z,35.12
2018-08-11T13:45:36.324Z,34.83
2018-08-11T13:48:06.741Z,34.20
2018-08-11T13:50:36.453Z,33.85
2018-08-11T13:53:06.444Z,33.89
2018-08-11T13:55:36.116Z,35.07
2018-08-11T13:58:06.082Z,34.78
2018-08-11T14:00:40.490Z,35.37
2018-08-11T14:03:10.510Z,35.76
2018-08-11T14:05:40.157Z,34.60
2018-08-11T14:08:09.981Z,34.12
2018-08-11T14:10:39.998Z,33.62
2018-08-11T14:13:09.726Z,33.57
2018-08-11T14:18:25.996Z,34.17
2018-08-11T14:20:55.883Z,33.50
2018-08-11T14:23:25.466Z,33.63
2018-08-11T14:25:56.041Z,33.98
2018-08-11T14:28:25.766Z,34.06
2018-08-11T14:30:55.218Z,33.28
2018-08-11T14:33:24.723Z,34.39
2018-08-11T14:36:07.132Z,32.76
2018-08-11T14:38:59.076Z,33.62
2018-08-11T14:41:30.848Z,33.46
2018-08-11T14:44:02.695Z,33.12
2018-08-11T14:46:33.367Z,32.84
2018-08-11T14:49:05.316Z,34.14
2018-08-11T14:51:37.836Z,34.55
2018-08-11T14:54:08.765Z,34.89
2018-08-11T14:56:39.258Z,33.52
2018-08-11T14:59:10.184Z,32.94
2018-08-11T15:01:46.495Z,33.57
2018-08-11T15:04:24.432Z,33.31
2018-08-11T15:06:56.954Z,33.91
2018-08-11T15:09:29.938Z,34.00
2018-08-11T15:12:03.195Z,34.29
2018-08-11T15:14:38.800Z,33.88
2018-08-11T15:17:10.650Z,34.15
2018-08-11T15:19:42.969Z,33.25
2018-08-11T15:22:14.315Z,33.24
2018-08-11T15:24:46.936Z,33.78
2018-08-11T15:27:20.452Z,34.06
2018-08-11T15:29:52.308Z,34.07
2018-08-11T15:32:22.488Z,33.46
2018-08-11T15:34:54.594Z,33.31
2018-08-11T15:37:25.320Z,32.72
2018-08-11T15:39:59.338Z,33.50
2018-08-11T15:42:34.254Z,33.80
2018-08-11T15:45:08.242Z,33.53
2018-08-11T15:47:39.821Z,33.80
2018-08-11T15:50:12.246Z,34.00
2018-08-11T15:52:45.283Z,32.13
2018-08-11T15:55:15.633Z,32.64
2018-08-11T15:57:46.442Z,32.36
2018-08-11T16:00:20.237Z,32.95
2018-08-11T16:02:54.118Z,33.83
2018-08-11T16:05:26.687Z,32.92
2018-08-11T16:07:57.651Z,33.60
2018-08-11T16:10:29.346Z,32.34
2018-08-11T16:13:04.592Z,33.59
2018-08-11T16:18:29.600Z,34.20
2018-08-11T16:21:05.504Z,33.72
2018-08-11T16:23:38.956Z,34.90
2018-08-11T16:26:20.452Z,35.10
2018-08-11T16:28:56.202Z,34.54
2018-08-11T16:31:33.780Z,34.83
2018-08-11T16:34:12.074Z,35.04
2018-08-11T16:36:54.314Z,35.03
2018-08-11T16:39:27.846Z,35.80
2018-08-11T16:42:01.094Z,34.58
2018-08-11T16:44:30.620Z,35.15
2018-08-11T16:47:02.052Z,35.73
2018-08-11T16:49:34.608Z,35.86
2018-08-11T16:52:07.740Z,35.47
2018-08-11T16:54:40.496Z,35.58
2018-08-11T16:57:13.490Z,36.93
2018-08-11T16:59:46.845Z,36.08
2018-08-11T17:02:18.153Z,36.02
2018-08-11T17:04:48.881Z,35.50
2018-08-11T17:07:22.981Z,36.69
2018-08-11T17:09:56.737Z,36.04
2018-08-11T17:15:19.091Z,35.88
2018-08-11T17:17:54.889Z,36.57
2018-08-11T17:20:30.672Z,36.59
2018-08-11T17:23:06.675Z,35.82
2018-08-11T17:25:40.251Z,35.65
2018-08-11T17:31:02.536Z,35.12
2018-08-11T17:33:39.549Z,35.01
2018-08-11T17:36:13.035Z,35.62
2018-08-11T17:38:50.884Z,35.96
2018-08-11T17:41:21.204Z,35.77
2018-08-11T17:43:51.469Z,36.08
2018-08-11T17:46:22.056Z,35.67
2018-08-11T17:48:55.037Z,36.34
2018-08-11T17:51:27.628Z,36.25
2018-08-11T17:53:57.808Z,35.97
2018-08-11T17:56:30.088Z,37.09
2018-08-11T17:59:03.636Z,37.61
2018-08-11T18:01:35.399Z,36.92
2018-08-11T18:04:11.077Z,37.29
2018-08-11T18:09:19.573Z,36.96
2018-08-11T18:11:51.186Z,36.85
2018-08-11T18:14:22.692Z,37.33
2018-08-11T18:16:52.975Z,38.26
2018-08-11T18:19:23.216Z,37.41
2018-08-11T18:21:55.388Z,38.40
2018-08-11T18:24:26.872Z,37.55
2018-08-11T18:26:57.721Z,38.50
2018-08-11T18:29:28.920Z,38.19
2018-08-11T18:34:51.635Z,38.45
2018-08-11T18:37:25.938Z,38.53
2018-08-11T18:39:59.212Z,38.52
2018-08-11T18:42:37.506Z,38.20
2018-08-11T18:45:16.725Z,37.63
2018-08-11T18:47:52.406Z,38.18
2018-08-11T18:50:25.740Z,39.54
2018-08-11T18:52:59.281Z,39.69
2018-08-11T18:55:36.084Z,39.84
2018-08-11T18:58:07.811Z,40.90
2018-08-11T19:00:38.888Z,39.82
2018-08-11T19:03:17.192Z,40.28
2018-08-11T19:05:55.283Z,40.41
2018-08-11T19:08:30.168Z,39.58
2018-08-11T19:11:06.391Z,40.50
2018-08-11T19:13:44.418Z,40.51
2018-08-11T19:16:20.288Z,39.16
2018-08-11T19:18:52.856Z,39.15
2018-08-11T19:21:29.192Z,38.37
2018-08-11T19:24:06.034Z,38.27
2018-08-11T19:26:38.767Z,39.16
2018-08-11T19:29:08.719Z,40.24
2018-08-11T19:31:38.617Z,39.90
2018-08-11T19:34:09.684Z,40.03
2018-08-11T19:36:40.901Z,39.27
2018-08-11T19:39:12.624Z,40.40
2018-08-11T19:41:43.071Z,40.02
2018-08-11T19:44:13.364Z,40.76
2018-08-11T19:46:43.808Z,41.41
2018-08-11T19:49:15.412Z,41.16
2018-08-11T19:51:45.235Z,41.65
2018-08-11T19:54:15.294Z,40.86
2018-08-11T19:56:45.152Z,42.16
2018-08-11T19:59:15.442Z,42.44
2018-08-11T20:01:46.141Z,41.57
2018-08-11T20:04:18.753Z,42.64
2018-08-11T20:06:49.768Z,43.12
2018-08-11T20:09:19.621Z,43.98
2018-08-11T20:11:49.669Z,43.77
2018-08-11T20:14:20.073Z,43.82
2018-08-11T20:16:50.928Z,43.49
2018-08-11T20:19:21.744Z,44.60
2018-08-11T20:21:55.804Z,44.31
2018-08-11T20:24:26.078Z,44.54
2018-08-11T20:26:58.395Z,44.42
2018-08-11T20:29:28.675Z,44.94
2018-08-11T20:31:58.736Z,44.90
2018-08-11T20:34:28.578Z,45.89
2018-08-11T20:36:58.669Z,46.72
2018-08-11T20:39:28.611Z,45.52
2018-08-11T20:41:58.186Z,46.85
2018-08-11T20:44:28.971Z,46.02
2018-08-11T20:46:59.231Z,46.25
2018-08-11T20:49:29.114Z,47.23
2018-08-11T20:52:00.563Z,47.68
2018-08-11T20:54:32.084Z,46.89
2018-08-11T20:57:01.726Z,47.76
2018-08-11T20:59:33.762Z,47.85
2018-08-11T21:02:03.887Z,48.05
2018-08-11T21:04:34.323Z,49.07
2018-08-11T21:07:05.585Z,49.14
2018-08-11T21:09:35.935Z,49.21
2018-08-11T21:12:06.266Z,48.02
2018-08-11T21:14:36.639Z,48.57
2018-08-11T21:17:07.690Z,49.33
2018-08-11T21:19:38.857Z,49.84
2018-08-11T21:22:10.237Z,49.00
2018-08-11T21:24:40.404Z,48.79
2018-08-11T21:27:11.233Z,49.93
2018-08-11T21:29:42.086Z,48.88
2018-08-11T21:32:12.250Z,49.57
2018-08-11T21:34:42.331Z,49.50
2018-08-11T21:37:13.237Z,48.96
2018-08-11T21:39:43.462Z,48.71
2018-08-11T21:42:14.002Z,48.60
2018-08-11T21:44:44.232Z,48.78
2018-08-11T21:47:14.250Z,48.47
2018-08-11T21:49:45.904Z,48.86
2018-08-11T21:52:17.951Z,48.87
2018-08-11T21:54:48.338Z,49.01
2018-08-11T21:57:21.999Z,48.52
2018-08-11T21:59:52.256Z,48.53
2018-08-11T22:02:22.107Z,48.96
2018-08-11T22:04:55.863Z,49.16
2018-08-11T22:07:25.667Z,49.37
2018-08-11T22:09:55.887Z,49.70
2018-08-11T22:12:34.364Z,48.93
2018-08-11T22:15:04.196Z,48.81
2018-08-11T22:17:34.020Z,49.12
2018-08-11T22:20:05.077Z,49.26
2018-08-11T22:22:35.732Z,49.03
2018-08-11T22:25:08.317Z,49.45
2018-08-11T22:27:38.027Z,50.29
2018-08-11T22:30:08.526Z,50.24
2018-08-11T22:32:38.554Z,49.46
2018-08-11T22:35:11.262Z,50.18
2018-08-11T22:37:42.015Z,50.25
2018-08-11T22:40:12.034Z,50.70
2018-08-11T22:42:42.397Z,50.92
2018-08-11T22:45:13.049Z,50.60
2018-08-11T22:47:42.667Z,51.08
2018-08-11T22:50:14.758Z,50.96
2018-08-11T22:52:44.500Z,51.34
2018-08-11T22:55:14.581Z,51.72
2018-08-11T22:57:44.530Z,51.29
2018-08-11T23:00:20.532Z,50.53
2018-08-11T23:02:50.561Z,50.75
2018-08-11T23:05:21.941Z,50.46
2018-08-11T23:07:52.189Z,50.36
2018-08-11T23:10:21.810Z,50.52
2018-08-11T23:12:51.363Z,51.23
2018-08-11T23:15:20.958Z,50.86
2018-08-11T23:17:51.492Z,50.63
2018-08-11T23:20:21.090Z,50.53
2018-08-11T23:22:50.679Z,50.02
2018-08-11T23:25:20.656Z,50.24
2018-08-11T23:27:51.043Z,49.84
2018-08-11T23:30:20.610Z,49.87
2018-08-11T23:32:50.211Z,49.57
2018-08-11T23:35:19.837Z,49.89
2018-08-11T23:37:49.836Z,49.84
2018-08-11T23:40:19.616Z,49.80
2018-08-11T23:42:49.795Z,49.78
2018-08-11T23:45:19.670Z,50.07
2018-08-11T23:47:49.542Z,49.30
2018-08-11T23:50:19.313Z,49.54
2018-08-11T23:52:49.312Z,50.17
2018-08-11T23:55:18.899Z,49.58
2018-08-11T23:57:48.855Z,49.95
